Time;durP1;ratioP1;P1;durP2;ratioP2;P2;SDS_P1;SDS_P2;PMS_P1;PMS_P2;Temp;Humidity;BMP_temperature;BMP_pressure;BME280_temperature;BME280_humidity;BME280_pressure;Samples;Min_cycle;Max_cycle;Signal;HPM_P1;HPM_P2
2020/12/13 00:01:57;;;;;;;110.05;46.53;;;;;;;1.41;100.00;99964.59;5024418;28;20053;-45
2020/12/13 00:04:23;;;;;;;110.35;46.28;;;;;;;1.38;100.00;99966.94;5024397;28;20057;-44
2020/12/13 00:06:50;;;;;;;114.65;47.45;;;;;;;1.34;100.00;99969.22;5025074;28;20056;-47
2020/12/13 00:09:17;;;;;;;108.35;47.20;;;;;;;1.36;100.00;99973.59;5024269;28;20076;-44
2020/12/13 00:11:43;;;;;;;115.10;46.97;;;;;;;1.34;100.00;99970.13;5023900;28;20038;-44
2020/12/13 00:14:10;;;;;;;111.97;47.20;;;;;;;1.33;100.00;99980.13;5024148;28;20462;-45
2020/12/13 00:16:36;;;;;;;115.50;46.58;;;;;;;1.32;100.00;99984.31;5024348;28;20061;-45
2020/12/13 00:19:03;;;;;;;117.88;48.30;;;;;;;1.33;100.00;99991.06;5024495;28;20526;-47
2020/12/13 00:21:29;;;;;;;110.72;49.47;;;;;;;1.36;100.00;99990.38;5024238;28;20526;-48
2020/12/13 00:23:56;;;;;;;117.22;48.00;;;;;;;1.34;100.00;99994.44;5024421;28;20061;-47
2020/12/13 00:26:22;;;;;;;114.22;48.35;;;;;;;1.37;100.00;99992.09;5023696;28;20061;-45
2020/12/13 00:28:49;;;;;;;119.25;48.45;;;;;;;1.33;100.00;99998.63;5024542;28;20234;-44
2020/12/13 00:31:16;;;;;;;119.90;48.78;;;;;;;1.40;100.00;100000.69;5024291;28;20801;-46
2020/12/13 00:33:43;;;;;;;122.88;48.30;;;;;;;1.34;100.00;100000.41;5024197;28;20533;-47
2020/12/13 00:36:09;;;;;;;124.15;51.88;;;;;;;1.35;100.00;99999.59;5024046;28;20050;-44
2020/12/13 00:38:37;;;;;;;133.02;50.40;;;;;;;1.33;100.00;100000.28;5023695;28;20437;-44
2020/12/13 00:41:03;;;;;;;128.13;49.80;;;;;;;1.33;100.00;100000.28;5024108;28;20502;-46
2020/12/13 00:43:29;;;;;;;129.75;50.53;;;;;;;1.35;100.00;100009.69;5023540;28;20072;-47
2020/12/13 00:45:56;;;;;;;133.50;52.80;;;;;;;1.34;100.00;99999.50;5023574;28;20127;-48
2020/12/13 00:48:23;;;;;;;137.18;51.58;;;;;;;1.38;100.00;100003.91;5023701;28;20095;-44
2020/12/13 00:50:49;;;;;;;155.55;55.88;;;;;;;1.36;100.00;100010.56;5024166;28;20454;-45
2020/12/13 00:53:16;;;;;;;143.57;52.47;;;;;;;1.38;100.00;100003.91;5023607;28;20454;-44
2020/12/13 00:55:42;;;;;;;155.43;55.70;;;;;;;1.37;100.00;100009.75;5023654;28;20052;-44
2020/12/13 00:58:08;;;;;;;149.38;55.45;;;;;;;1.32;100.00;100008.66;5023723;28;20576;-49
2020/12/13 01:00:35;;;;;;;140.30;52.28;;;;;;;1.41;100.00;100019.22;5023903;28;20134;-48
2020/12/13 01:03:01;;;;;;;146.75;54.13;;;;;;;1.36;100.00;100018.97;5023252;28;20041;-47
2020/12/13 01:05:28;;;;;;;129.40;51.08;;;;;;;1.54;100.00;100024.09;5023306;28;20045;-48
2020/12/13 01:07:54;;;;;;;143.20;51.42;;;;;;;1.36;100.00;100025.69;5023223;28;20183;-46
2020/12/13 01:10:22;;;;;;;156.10;53.90;;;;;;;1.34;100.00;100019.69;5023120;28;20049;-49
2020/12/13 01:12:48;;;;;;;143.43;54.63;;;;;;;1.28;100.00;100023.63;5023327;28;20058;-47
2020/12/13 01:15:16;;;;;;;146.07;52.95;;;;;;;1.47;100.00;100030.47;5023489;28;20103;-44
2020/12/13 01:17:47;;;;;;;139.57;52.50;;;;;;;1.36;100.00;100025.69;5017673;28;20041;-46
2020/12/13 01:20:14;;;;;;;143.63;52.42;;;;;;;1.37;100.00;100027.41;5022858;28;20041;-46
2020/12/13 01:22:41;;;;;;;142.45;51.53;;;;;;;1.32;100.00;100032.22;5017015;28;20053;-48
2020/12/13 01:25:09;;;;;;;153.25;53.40;;;;;;;1.30;100.00;100023.72;5023916;28;20045;-44
2020/12/13 01:27:36;;;;;;;158.25;54.40;;;;;;;1.29;100.00;100027.00;5023252;28;20195;-45
2020/12/13 01:30:08;;;;;;;159.10;57.28;;;;;;;1.37;100.00;100028.28;5023678;28;20053;-44
2020/12/13 01:32:39;;;;;;;144.57;53.42;;;;;;;1.36;100.00;100030.72;5023100;28;20375;-47
2020/12/13 01:35:08;;;;;;;141.38;54.47;;;;;;;1.37;100.00;100035.84;5022823;28;20075;-47
2020/12/13 01:37:34;;;;;;;149.77;51.90;;;;;;;1.45;100.00;100039.63;5023408;28;20099;-45
2020/12/13 01:40:02;;;;;;;162.32;54.00;;;;;;;1.37;100.00;100040.03;5022995;28;20044;-46
2020/12/13 01:42:29;;;;;;;156.60;56.20;;;;;;;1.39;100.00;100039.31;5022934;28;20046;-45
2020/12/13 01:44:55;;;;;;;139.15;52.13;;;;;;;1.45;100.00;100038.78;5022995;28;20053;-44
2020/12/13 01:47:22;;;;;;;126.82;51.05;;;;;;;1.52;100.00;100050.88;5022699;28;20041;-48
2020/12/13 01:49:50;;;;;;;126.13;50.25;;;;;;;1.67;100.00;100050.84;5023309;28;20045;-45
2020/12/13 01:55:05;;;;;;;132.55;49.72;;;;;;;1.54;100.00;100049.34;5023408;28;20189;-48
2020/12/13 01:57:37;;;;;;;127.82;48.55;;;;;;;1.50;100.00;100049.97;5003781;28;20128;-46
2020/12/13 02:00:10;;;;;;;129.00;48.63;;;;;;;1.55;100.00;100047.66;5011332;28;20100;-45
2020/12/13 02:02:47;;;;;;;140.35;51.30;;;;;;;1.47;100.00;100054.84;5002722;28;20084;-44
2020/12/13 02:05:14;;;;;;;148.32;51.38;;;;;;;1.42;100.00;100062.16;5003543;28;20052;-45
2020/12/13 02:07:42;;;;;;;130.18;51.30;;;;;;;1.47;100.00;100053.19;4997816;28;20336;-44
2020/12/13 02:10:11;;;;;;;148.13;52.35;;;;;;;1.53;100.00;100058.56;5003527;28;20500;-45
2020/12/13 02:12:38;;;;;;;136.43;51.13;;;;;;;1.59;100.00;100064.69;5003226;28;20057;-46
2020/12/13 02:15:06;;;;;;;124.57;47.80;;;;;;;1.73;100.00;100057.03;5003459;28;20573;-45
2020/12/13 02:17:34;;;;;;;135.10;49.47;;;;;;;1.65;100.00;100058.31;5010763;28;20056;-48
2020/12/13 02:20:05;;;;;;;130.75;49.30;;;;;;;1.56;100.00;100060.34;5010020;28;20069;-46
2020/12/13 02:22:32;;;;;;;143.82;52.75;;;;;;;1.50;100.00;100060.91;5009342;28;20058;-47
2020/12/13 02:25:34;;;;;;;161.48;52.97;;;;;;;1.45;100.00;100058.94;5005355;28;20046;-48
2020/12/13 02:28:01;;;;;;;151.10;53.55;;;;;;;1.46;100.00;100060.69;5000111;28;20096;-47
2020/12/13 02:30:28;;;;;;;169.80;57.45;;;;;;;1.47;100.00;100059.88;5006598;28;20426;-45
2020/12/13 02:32:55;;;;;;;144.75;52.67;;;;;;;1.52;100.00;100061.84;5006540;28;20079;-47
2020/12/13 02:35:22;;;;;;;134.73;51.78;;;;;;;1.72;100.00;100057.84;5016943;28;20057;-49
2020/12/13 02:37:48;;;;;;;132.63;50.15;;;;;;;1.76;100.00;100062.25;5007050;28;20053;-46
2020/12/13 02:40:15;;;;;;;130.05;47.97;;;;;;;1.76;100.00;100061.38;5006616;28;20045;-44
2020/12/13 02:42:41;;;;;;;136.60;51.58;;;;;;;1.70;100.00;100072.00;5001064;28;20050;-45
2020/12/13 02:45:08;;;;;;;163.40;52.50;;;;;;;1.57;100.00;100079.75;5006440;28;20076;-46
2020/12/13 02:47:35;;;;;;;147.15;52.10;;;;;;;1.57;100.00;100072.16;5006563;28;20066;-48
2020/12/13 02:50:02;;;;;;;143.55;51.22;;;;;;;1.69;100.00;100082.03;5025896;28;20483;-47
2020/12/13 02:52:29;;;;;;;143.10;50.60;;;;;;;1.79;100.00;100079.19;5025437;28;20572;-48
2020/12/13 02:54:55;;;;;;;110.07;45.53;;;;;;;1.91;100.00;100084.00;5025695;28;20049;-47
2020/12/13 02:57:22;;;;;;;118.97;47.47;;;;;;;1.93;100.00;100084.94;5025717;28;20084;-50
2020/12/13 02:59:48;;;;;;;132.07;51.17;;;;;;;1.76;100.00;100084.09;5025792;28;20125;-45
2020/12/13 03:02:14;;;;;;;162.75;52.17;;;;;;;1.58;100.00;100083.16;5024814;28;20525;-46
2020/12/13 03:04:41;;;;;;;161.75;52.35;;;;;;;1.54;100.00;100079.59;5019447;28;20076;-45
2020/12/13 03:07:11;;;;;;;134.40;51.30;;;;;;;1.64;100.00;100086.00;5025325;28;20114;-44
2020/12/13 03:09:37;;;;;;;154.95;51.45;;;;;;;1.62;100.00;100082.50;5024993;28;20115;-44
2020/12/13 03:12:04;;;;;;;151.50;51.00;;;;;;;1.59;100.00;100087.41;5019884;28;20061;-46
2020/12/13 03:14:31;;;;;;;178.90;55.65;;;;;;;1.53;100.00;100093.00;5025097;28;20083;-47
2020/12/13 03:16:58;;;;;;;159.10;53.20;;;;;;;1.61;100.00;100086.69;5025423;28;20045;-49
2020/12/13 03:19:25;;;;;;;142.55;54.15;;;;;;;1.71;100.00;100093.97;5023204;28;20083;-50
2020/12/13 03:21:51;;;;;;;136.68;49.00;;;;;;;1.84;100.00;100100.47;5025094;28;20115;-44
2020/12/13 03:24:18;;;;;;;139.70;49.80;;;;;;;1.79;100.00;100097.72;5024574;28;20088;-49
2020/12/13 03:26:44;;;;;;;134.07;49.30;;;;;;;1.81;100.00;100099.47;5024597;28;20148;-46
2020/12/13 03:29:11;;;;;;;125.35;49.95;;;;;;;1.82;100.00;100099.53;5025054;28;20462;-48
2020/12/13 03:31:37;;;;;;;166.93;54.22;;;;;;;1.70;100.00;100106.47;5023546;28;20061;-48
2020/12/13 03:34:04;;;;;;;167.57;53.50;;;;;;;1.60;100.00;100102.63;5024571;28;20507;-47
2020/12/13 03:36:30;;;;;;;165.43;54.00;;;;;;;1.62;100.00;100103.59;5024729;28;20133;-44
2020/12/13 03:38:57;;;;;;;166.15;53.88;;;;;;;1.58;100.00;100098.31;5024902;28;20135;-45
2020/12/13 03:41:23;;;;;;;177.23;56.97;;;;;;;1.53;100.00;100103.97;5024421;28;20079;-46
2020/12/13 03:43:51;;;;;;;180.20;56.80;;;;;;;1.58;100.00;100106.72;5024641;28;20045;-46
2020/12/13 03:46:17;;;;;;;147.48;53.03;;;;;;;1.69;100.00;100118.22;5024065;28;20119;-47
2020/12/13 03:48:44;;;;;;;173.98;54.40;;;;;;;1.65;100.00;100115.47;5024452;28;20050;-50
2020/12/13 03:51:10;;;;;;;145.32;52.00;;;;;;;1.74;100.00;100108.38;5024425;28;20114;-49
2020/12/13 03:53:37;;;;;;;161.82;54.15;;;;;;;1.75;100.00;100112.63;5024046;28;20045;-44
2020/12/13 03:56:03;;;;;;;161.48;54.38;;;;;;;1.62;100.00;100116.19;5024693;28;20045;-44
2020/12/13 03:58:30;;;;;;;151.68;52.55;;;;;;;1.66;100.00;100114.69;5024237;28;20107;-47
2020/12/13 04:00:56;;;;;;;147.90;51.67;;;;;;;1.95;100.00;100123.75;5024243;28;20045;-46
2020/12/13 04:03:23;;;;;;;184.80;57.47;;;;;;;1.66;100.00;100127.28;5023922;28;20191;-47
2020/12/13 04:05:49;;;;;;;191.23;58.55;;;;;;;1.57;100.00;100127.69;5024431;28;20049;-46
2020/12/13 04:08:15;;;;;;;199.93;57.70;;;;;;;1.58;100.00;100126.06;5023842;28;20055;-47
2020/12/13 04:10:42;;;;;;;200.48;58.42;;;;;;;1.55;100.00;100130.94;5024160;28;20050;-46
2020/12/13 04:13:08;;;;;;;219.13;63.30;;;;;;;1.55;100.00;100129.28;5023402;28;20191;-46
2020/12/13 04:15:35;;;;;;;181.75;55.53;;;;;;;1.60;100.00;100121.94;5024121;28;20053;-47
2020/12/13 04:18:01;;;;;;;177.15;55.45;;;;;;;1.71;100.00;100126.78;5023941;28;20041;-44
2020/12/13 04:20:28;;;;;;;190.40;54.63;;;;;;;1.69;100.00;100130.00;5023748;28;20045;-43
2020/12/13 04:22:54;;;;;;;215.52;57.33;;;;;;;1.64;100.00;100124.69;5023486;28;20426;-45
2020/12/13 04:25:21;;;;;;;231.43;59.05;;;;;;;1.62;100.00;100118.72;5023678;28;20061;-47
2020/12/13 04:27:48;;;;;;;230.98;59.30;;;;;;;1.59;100.00;100128.66;5023867;28;20628;-44
2020/12/13 04:30:15;;;;;;;213.27;59.00;;;;;;;1.61;100.00;100119.47;5023874;28;20045;-44
2020/12/13 04:32:41;;;;;;;171.30;54.22;;;;;;;1.72;100.00;100130.16;5018512;28;20429;-45
2020/12/13 04:35:08;;;;;;;143.82;50.00;;;;;;;1.85;100.00;100127.47;5023820;28;20041;-44
2020/12/13 04:37:35;;;;;;;151.30;51.33;;;;;;;2.00;100.00;100140.88;5024936;28;20060;-45
2020/12/13 04:40:04;;;;;;;184.93;53.35;;;;;;;1.81;100.00;100134.81;5024160;28;20119;-47
2020/12/13 04:42:34;;;;;;;160.77;52.28;;;;;;;1.91;100.00;100140.41;5023683;28;20050;-44
2020/12/13 04:45:01;;;;;;;160.25;50.92;;;;;;;1.88;100.00;100141.91;5024369;28;20041;-47
2020/12/13 04:47:31;;;;;;;132.80;49.35;;;;;;;1.88;100.00;100145.28;5024440;28;20049;-44
2020/12/13 04:50:01;;;;;;;167.00;53.83;;;;;;;1.82;100.00;100147.50;5024325;28;22116;-49
2020/12/13 04:55:15;;;;;;;132.98;48.58;;;;;;;2.14;100.00;100156.72;4895450;29;20353;-54
2020/12/13 04:57:41;;;;;;;133.50;50.60;;;;;;;2.10;100.00;100159.88;4899779;29;20044;-53
2020/12/13 05:00:08;;;;;;;143.73;48.03;;;;;;;2.09;100.00;100162.34;4894981;29;20104;-53
2020/12/13 05:02:35;;;;;;;128.73;49.10;;;;;;;2.06;100.00;100154.59;4895714;29;20052;-56
2020/12/13 05:05:01;;;;;;;122.63;46.95;;;;;;;2.13;100.00;100164.22;4913059;28;20052;-54
2020/12/13 05:07:28;;;;;;;146.85;50.90;;;;;;;2.12;100.00;100170.03;4913959;28;20071;-55
2020/12/13 05:09:54;;;;;;;127.90;47.90;;;;;;;2.06;100.00;100167.22;4913891;28;20104;-51
2020/12/13 05:12:24;;;;;;;141.15;50.17;;;;;;;2.12;100.00;100170.03;4915732;28;20051;-51
2020/12/13 05:14:50;;;;;;;115.43;46.20;;;;;;;2.38;100.00;100176.44;4912801;28;20140;-51
2020/12/13 05:17:16;;;;;;;147.00;50.58;;;;;;;2.06;100.00;100174.78;4914282;28;20103;-50
2020/12/13 05:19:47;;;;;;;144.35;50.30;;;;;;;2.18;100.00;100175.44;4912328;28;20135;-53
2020/12/13 05:22:19;;;;;;;129.30;48.22;;;;;;;2.22;100.00;100172.28;4913843;28;20506;-48
2020/12/13 05:24:47;;;;;;;149.05;49.50;;;;;;;2.12;100.00;100178.50;4920690;28;20047;-50
2020/12/13 05:27:18;;;;;;;125.47;46.65;;;;;;;2.27;100.00;100174.25;4920784;28;20095;-51
2020/12/13 05:29:48;;;;;;;129.25;47.88;;;;;;;2.23;100.00;100181.59;4922922;28;20054;-49
2020/12/13 05:32:18;;;;;;;126.15;46.58;;;;;;;2.48;100.00;100181.13;4920752;28;20051;-49
2020/12/13 05:34:47;;;;;;;126.65;50.00;;;;;;;2.22;100.00;100180.72;4922566;28;20130;-53
2020/12/13 05:37:15;;;;;;;134.65;48.10;;;;;;;2.08;100.00;100186.72;4920921;28;20047;-50
2020/12/13 05:39:50;;;;;;;134.07;49.22;;;;;;;2.01;100.00;100189.72;4922909;28;20044;-52
2020/12/13 05:42:40;;;;;;;129.10;49.17;;;;;;;2.12;100.00;100186.06;4921090;28;20111;-54
2020/12/13 05:53:02;;;;;;;122.85;45.60;;;;;;;2.00;100.00;100205.66;4944943;28;20051;-51
2020/12/13 05:55:30;;;;;;;127.68;46.95;;;;;;;2.01;100.00;100198.16;4962755;28;20059;-57
2020/12/13 05:57:56;;;;;;;164.90;52.22;;;;;;;1.88;100.00;100203.34;4964781;28;20104;-55
2020/12/13 06:00:23;;;;;;;203.50;55.33;;;;;;;1.70;100.00;100198.19;4955855;28;20508;-51
2020/12/13 06:02:50;;;;;;;162.55;53.42;;;;;;;1.91;100.00;100198.47;4967704;28;20432;-51
2020/12/13 06:05:18;;;;;;;190.95;54.00;;;;;;;1.75;100.00;100195.91;4967700;28;20583;-55
2020/12/13 06:07:48;;;;;;;155.10;50.55;;;;;;;1.78;100.00;100194.44;4968163;28;20142;-50
2020/12/13 06:10:24;;;;;;;154.35;51.35;;;;;;;1.83;100.00;100207.28;4967462;28;20051;-51
2020/12/13 06:13:06;;;;;;;163.32;52.80;;;;;;;1.83;100.00;100211.47;4965181;28;20046;-51
2020/12/13 06:15:34;;;;;;;155.73;51.97;;;;;;;1.94;100.00;100215.41;4959375;28;20054;-52
2020/12/13 06:18:03;;;;;;;146.20;51.88;;;;;;;1.91;100.00;100208.56;4953395;28;20358;-55
2020/12/13 06:20:29;;;;;;;143.40;50.78;;;;;;;1.94;100.00;100218.84;4954483;28;20054;-53
2020/12/13 06:22:59;;;;;;;157.52;51.83;;;;;;;1.91;100.00;100215.28;4952877;28;20051;-52
2020/12/13 06:25:26;;;;;;;171.15;52.88;;;;;;;1.80;100.00;100224.78;4961844;28;20051;-52
2020/12/13 06:27:52;;;;;;;143.15;50.05;;;;;;;1.91;100.00;100228.75;4963882;28;20450;-55
2020/12/13 06:30:20;;;;;;;150.43;51.03;;;;;;;1.97;100.00;100231.59;4961412;28;20059;-57
2020/12/13 06:32:51;;;;;;;152.32;50.28;;;;;;;1.87;100.00;100229.38;4963288;28;20073;-54
2020/12/13 06:35:18;;;;;;;156.68;50.40;;;;;;;1.88;100.00;100227.72;4961494;28;20046;-55
2020/12/13 06:37:47;;;;;;;155.85;51.00;;;;;;;1.88;100.00;100233.63;4963641;28;20051;-57
2020/12/13 06:40:21;;;;;;;126.20;48.65;;;;;;;2.10;100.00;100233.13;4961581;28;20055;-53
2020/12/13 06:42:50;;;;;;;143.70;49.63;;;;;;;1.99;100.00;100237.63;4963599;28;20046;-57
2020/12/13 06:45:17;;;;;;;164.93;53.08;;;;;;;1.95;100.00;100229.81;4961698;28;20078;-55
2020/12/13 06:47:49;;;;;;;174.30;52.38;;;;;;;1.84;100.00;100235.91;4964215;28;20122;-55
2020/12/13 06:50:22;;;;;;;192.75;55.72;;;;;;;1.81;100.00;100235.78;4961538;28;20047;-51
2020/12/13 06:52:53;;;;;;;208.55;59.00;;;;;;;1.76;100.00;100246.50;4963514;28;20082;-50
2020/12/13 06:55:38;;;;;;;161.63;53.50;;;;;;;2.10;100.00;100248.25;4961224;28;20059;-44
2020/12/13 06:58:04;;;;;;;148.05;53.22;;;;;;;2.05;100.00;100262.31;4962954;28;20106;-50
2020/12/13 07:00:48;;;;;;;134.77;49.70;;;;;;;2.24;100.00;100267.53;4961929;28;20465;-46
2020/12/13 07:03:25;;;;;;;171.18;50.75;;;;;;;2.15;100.00;100263.66;4960811;28;20046;-44
2020/12/13 07:05:56;;;;;;;168.75;54.80;;;;;;;2.06;100.00;100270.75;4960167;28;20055;-51
2020/12/13 07:08:26;;;;;;;125.07;47.83;;;;;;;2.45;100.00;100277.00;4954498;28;20055;-45
2020/12/13 07:10:53;;;;;;;136.82;46.22;;;;;;;2.20;100.00;100282.44;4934779;28;20131;-46
2020/12/13 07:13:23;;;;;;;130.65;49.72;;;;;;;2.18;100.00;100284.91;4954210;28;20059;-47
2020/12/13 07:16:07;;;;;;;132.63;48.80;;;;;;;2.18;100.00;100294.13;4952357;28;20055;-45
2020/12/13 07:18:35;;;;;;;140.35;48.80;;;;;;;2.04;100.00;100294.28;4941018;28;20129;-46
2020/12/13 07:21:03;;;;;;;161.48;52.00;;;;;;;1.88;100.00;100294.22;4952725;28;20047;-50
2020/12/13 07:23:29;;;;;;;166.93;54.30;;;;;;;1.82;100.00;100288.84;4953768;28;20051;-52
2020/12/13 07:25:56;;;;;;;170.63;52.45;;;;;;;1.92;100.00;100297.78;4957197;28;20042;-46
2020/12/13 07:28:23;;;;;;;163.70;54.75;;;;;;;1.95;100.00;100295.44;4959785;28;20061;-50
2020/12/13 07:30:49;;;;;;;161.68;53.33;;;;;;;1.98;100.00;100304.03;4956385;28;20046;-46
2020/12/13 07:33:16;;;;;;;140.73;51.03;;;;;;;2.45;100.00;100297.19;4960155;28;20042;-48
2020/12/13 07:35:42;;;;;;;131.35;47.20;;;;;;;2.52;100.00;100302.66;4962983;28;20054;-50
2020/12/13 07:38:09;;;;;;;145.27;50.10;;;;;;;2.22;100.00;100301.97;4961742;28;20047;-44
2020/12/13 07:40:35;;;;;;;167.80;52.05;;;;;;;2.02;100.00;100308.47;4962716;28;20058;-50
2020/12/13 07:43:04;;;;;;;168.70;53.35;;;;;;;2.11;100.00;100313.13;4962275;28;20518;-46
2020/12/13 07:45:32;;;;;;;179.68;52.88;;;;;;;2.45;100.00;100312.38;4961378;28;20047;-48
2020/12/13 07:48:01;;;;;;;177.32;54.08;;;;;;;2.04;100.00;100311.09;4962388;28;20076;-46
2020/12/13 07:50:34;;;;;;;159.88;52.05;;;;;;;2.01;100.00;100304.19;4962476;28;20078;-49
2020/12/13 07:53:01;;;;;;;169.93;54.13;;;;;;;2.07;100.00;100315.41;4961860;28;20050;-50
2020/12/13 07:55:28;;;;;;;130.70;48.92;;;;;;;2.63;100.00;100313.31;4960921;28;20118;-50
2020/12/13 07:57:56;;;;;;;132.90;49.25;;;;;;;2.85;100.00;100312.75;4962588;28;20051;-48
2020/12/13 08:00:23;;;;;;;140.68;49.60;;;;;;;2.55;100.00;100320.53;4960180;28;20067;-48
2020/12/13 08:02:54;;;;;;;137.90;48.33;;;;;;;2.42;100.00;100320.69;4965514;28;20055;-45
2020/12/13 08:05:25;;;;;;;132.98;47.05;;;;;;;2.40;100.00;100336.53;4959896;28;20059;-53
2020/12/13 08:08:00;;;;;;;110.22;43.13;;;;;;;2.30;100.00;100343.63;4961615;28;20046;-49
2020/12/13 08:10:30;;;;;;;124.05;44.55;;;;;;;2.21;100.00;100348.19;4959843;28;20114;-49
2020/12/13 08:12:57;;;;;;;135.65;49.92;;;;;;;2.12;100.00;100344.31;4975929;28;20101;-49
2020/12/13 08:15:24;;;;;;;138.50;48.55;;;;;;;2.19;100.00;100342.19;4959194;28;20058;-51
2020/12/13 08:18:18;;;;;;;126.00;46.88;;;;;;;2.34;100.00;100348.84;4960927;28;20047;-51
2020/12/13 08:20:47;;;;;;;126.00;46.58;;;;;;;2.36;100.00;100349.78;4960930;28;20038;-45
2020/12/13 08:23:15;;;;;;;113.60;45.50;;;;;;;2.52;100.00;100343.09;4959665;28;20122;-46
2020/12/13 08:25:42;;;;;;;113.60;43.15;;;;;;;2.50;100.00;100346.34;4956825;28;20549;-49
2020/12/13 08:28:14;;;;;;;131.70;47.75;;;;;;;2.41;100.00;100348.41;4952169;28;20071;-49
2020/12/13 08:30:41;;;;;;;133.25;48.75;;;;;;;2.29;100.00;100357.06;4951062;28;20055;-45
2020/12/13 08:33:09;;;;;;;114.57;45.05;;;;;;;2.48;100.00;100366.47;4952049;28;20102;-50
2020/12/13 08:35:37;;;;;;;113.22;45.60;;;;;;;2.58;100.00;100362.75;4947636;28;20055;-46
2020/12/13 08:38:04;;;;;;;120.13;45.10;;;;;;;2.62;100.00;100378.97;4943557;28;20054;-50
2020/12/13 08:40:45;;;;;;;117.28;45.60;;;;;;;2.55;100.00;100378.66;4954684;28;20385;-46
2020/12/13 08:43:19;;;;;;;127.75;47.53;;;;;;;2.55;100.00;100383.72;4957027;28;20050;-50
2020/12/13 08:46:02;;;;;;;125.95;46.47;;;;;;;2.66;100.00;100375.81;4950136;28;20106;-47
2020/12/13 08:48:29;;;;;;;117.47;45.10;;;;;;;2.83;100.00;100375.03;4951971;28;20054;-48
2020/12/13 08:51:10;;;;;;;113.60;45.53;;;;;;;2.76;100.00;100386.47;4950190;28;20134;-48
2020/12/13 08:53:37;;;;;;;110.55;45.20;;;;;;;3.01;100.00;100386.09;4950798;28;20081;-50
2020/12/13 08:56:06;;;;;;;106.70;43.95;;;;;;;2.89;100.00;100394.69;4950688;28;20059;-51
2020/12/13 08:59:00;;;;;;;117.20;45.88;;;;;;;2.73;100.00;100393.91;4954811;28;20094;-50
2020/12/13 09:01:35;;;;;;;120.43;47.92;;;;;;;2.71;100.00;100397.13;4957652;28;20047;-49
2020/12/13 09:04:17;;;;;;;119.43;47.38;;;;;;;2.74;100.00;100415.88;4956018;28;20039;-51
2020/12/13 09:06:56;;;;;;;113.25;47.60;;;;;;;2.98;100.00;100412.88;4957205;28;20129;-48
2020/12/13 09:09:28;;;;;;;103.93;44.97;;;;;;;3.24;100.00;100417.59;4958738;28;20051;-46
2020/12/13 09:11:54;;;;;;;104.25;43.95;;;;;;;3.10;100.00;100420.19;4975240;28;20779;-47
2020/12/13 09:14:28;;;;;;;101.60;43.80;;;;;;;3.19;100.00;100424.09;4958286;28;20055;-45
2020/12/13 09:16:55;;;;;;;99.50;42.65;;;;;;;3.00;100.00;100422.25;4943508;28;20088;-45
2020/12/13 09:19:22;;;;;;;116.60;46.08;;;;;;;2.76;100.00;100421.00;4958404;28;20083;-45
2020/12/13 09:21:57;;;;;;;125.95;48.90;;;;;;;2.72;100.00;100412.38;4960189;28;20760;-44
2020/12/13 09:24:34;;;;;;;118.90;46.53;;;;;;;3.07;100.00;100408.28;4958176;28;20051;-47
2020/12/13 09:27:18;;;;;;;107.53;45.35;;;;;;;2.82;100.00;100423.88;4974886;28;20505;-48
2020/12/13 09:29:49;;;;;;;115.72;45.42;;;;;;;2.83;100.00;100424.72;4961555;28;20144;-53
2020/12/13 09:32:17;;;;;;;120.13;46.55;;;;;;;2.85;100.00;100423.13;4962542;28;20078;-48
2020/12/13 09:34:45;;;;;;;109.80;45.97;;;;;;;3.01;100.00;100423.16;4964479;28;20047;-47
2020/12/13 09:37:15;;;;;;;107.40;44.30;;;;;;;3.06;100.00;100436.91;4963047;28;20703;-51
2020/12/13 09:39:42;;;;;;;95.55;41.58;;;;;;;3.02;100.00;100428.28;4958960;28;20131;-49
2020/12/13 09:42:10;;;;;;;103.00;43.50;;;;;;;3.24;100.00;100439.50;4952220;28;20060;-45
2020/12/13 09:44:37;;;;;;;106.50;44.15;;;;;;;2.89;100.00;100432.63;4959700;28;20568;-48
2020/12/13 09:47:03;;;;;;;103.03;43.30;;;;;;;3.06;100.00;100419.19;4954315;28;20092;-48
2020/12/13 09:49:31;;;;;;;116.65;44.92;;;;;;;3.23;100.00;100425.97;4955076;28;20105;-50
2020/12/13 09:51:58;;;;;;;99.50;42.35;;;;;;;3.27;100.00;100427.84;4953362;28;20051;-45
2020/12/13 09:54:26;;;;;;;94.75;44.00;;;;;;;3.60;100.00;100426.94;4962094;28;20085;-46
2020/12/13 09:56:53;;;;;;;99.28;44.03;;;;;;;3.36;100.00;100427.47;4964219;28;20693;-55
2020/12/13 09:59:20;;;;;;;92.40;41.90;;;;;;;3.57;100.00;100422.59;4965797;28;20101;-48
2020/12/13 10:01:47;;;;;;;98.65;43.10;;;;;;;3.30;100.00;100427.16;4956247;28;20070;-47
2020/12/13 10:04:16;;;;;;;104.40;44.22;;;;;;;3.13;100.00;100425.44;4958302;28;20138;-43
2020/12/13 10:09:11;;;;;;;109.72;45.40;;;;;;;3.35;100.00;100417.28;4958061;28;20055;-49
2020/12/13 10:11:39;;;;;;;95.88;42.20;;;;;;;3.51;100.00;100425.72;4956149;28;20051;-45
2020/12/13 10:14:11;;;;;;;94.45;41.35;;;;;;;3.45;100.00;100416.94;4956471;28;20134;-49
2020/12/13 10:16:40;;;;;;;94.53;43.00;;;;;;;3.37;100.00;100428.31;4957331;28;20051;-45
2020/12/13 10:19:07;;;;;;;92.40;44.38;;;;;;;3.58;100.00;100424.34;4956931;28;20043;-46
2020/12/13 10:21:35;;;;;;;85.22;39.90;;;;;;;3.64;100.00;100429.69;4957029;28;20047;-49
2020/12/13 10:24:02;;;;;;;93.30;41.03;;;;;;;3.63;100.00;100425.44;4958751;28;20465;-46
2020/12/13 10:26:31;;;;;;;95.22;43.38;;;;;;;3.27;100.00;100430.38;4963964;28;20055;-49
2020/12/13 10:29:02;;;;;;;93.45;41.13;;;;;;;3.27;100.00;100430.38;4959998;28;20135;-46
2020/12/13 10:31:31;;;;;;;101.07;44.25;;;;;;;3.21;100.00;100434.28;4966261;28;20055;-49
2020/12/13 10:33:58;;;;;;;103.15;45.47;;;;;;;3.16;100.00;100429.00;4952919;28;20047;-48
2020/12/13 10:36:25;;;;;;;103.88;46.80;;;;;;;3.09;100.00;100429.44;4963156;28;20070;-47
2020/12/13 10:38:52;;;;;;;93.80;42.40;;;;;;;3.28;100.00;100427.09;4959016;28;20043;-48
2020/12/13 10:41:20;;;;;;;99.32;44.08;;;;;;;3.41;100.00;100432.75;4955232;28;20055;-45
2020/12/13 10:43:47;;;;;;;95.38;42.30;;;;;;;3.51;100.00;100440.91;4967323;28;20054;-47
2020/12/13 10:46:14;;;;;;;94.55;43.33;;;;;;;3.55;100.00;100439.34;4956534;28;20051;-50
2020/12/13 10:48:41;;;;;;;91.07;40.92;;;;;;;4.07;100.00;100444.44;4953699;28;20151;-48
2020/12/13 10:51:07;;;;;;;84.30;41.40;;;;;;;3.95;99.41;100439.66;4954264;28;20055;-53
2020/12/13 10:53:34;;;;;;;84.97;39.25;;;;;;;4.21;97.68;100430.75;4955095;28;20105;-48
2020/12/13 10:56:03;;;;;;;91.65;42.28;;;;;;;3.73;99.46;100436.88;4955031;28;20059;-47
2020/12/13 10:58:30;;;;;;;86.28;40.50;;;;;;;3.75;100.00;100433.63;4956122;28;20105;-48
2020/12/13 11:00:56;;;;;;;82.72;40.45;;;;;;;3.77;100.00;100443.81;4955037;28;20594;-48
2020/12/13 11:03:23;;;;;;;87.28;41.33;;;;;;;3.67;100.00;100439.97;4958442;28;20125;-47
2020/12/13 11:05:49;;;;;;;84.28;40.35;;;;;;;4.01;100.00;100442.47;4965088;28;20177;-46
2020/12/13 11:08:16;;;;;;;85.53;41.03;;;;;;;3.76;99.77;100440.44;4966239;28;20058;-49
2020/12/13 11:10:49;;;;;;;81.38;38.38;;;;;;;3.61;100.00;100446.41;4964014;28;20149;-48
2020/12/13 11:13:15;;;;;;;94.38;42.08;;;;;;;3.24;100.00;100442.91;4961394;28;20926;-46
2020/12/13 11:15:43;;;;;;;95.68;41.63;;;;;;;3.30;100.00;100439.81;4954543;28;20051;-48
2020/12/13 11:18:10;;;;;;;90.35;40.25;;;;;;;3.46;100.00;100441.44;4954524;28;20051;-47
2020/12/13 11:20:37;;;;;;;88.03;41.97;;;;;;;3.60;100.00;100440.44;4957704;28;20047;-47
2020/12/13 11:23:04;;;;;;;86.78;41.65;;;;;;;3.60;100.00;100442.97;4952506;28;20055;-45
2020/12/13 11:25:30;;;;;;;88.57;42.45;;;;;;;3.99;100.00;100449.13;4953789;28;20062;-47